Observations for TRAVERSE CITY CHERR, MI (TVC)

KTVC 252153Z 03008KT 10SM FEW055 SCT090 SCT250 29/16 A2993 RMK AO2 SLP131 T02940161 
KTVC 252053Z 00000KT 10SM FEW055 FEW090 SCT200 33/10 A2993 RMK AO2 SLP131 T03330100 56016   
KTVC 251953Z 22007KT 180V270 10SM FEW055 FEW090 SCT200 33/09 A2994 RMK AO2 SLP134 T03330094 
KTVC 251853Z VRB05KT 10SM FEW050 SCT110 BKN250 33/10 A2996 RMK AO2 SLP141 T03330100 
KTVC 251753Z 23004KT 10SM FEW070 BKN230 32/12 A2998 RMK AO2 SLP148 T03220122 10328 20194 58012  
KTVC 251653Z 17004KT 10SM BKN220 32/15 A3000 RMK AO2 SLP154 T03220150   
KTVC 251553Z 18004KT 10SM BKN220 30/15 A3001 RMK AO2 SLP156 T03000150   
KTVC 251453Z 19004KT 10SM BKN220 27/16 A3002 RMK AO2 SLP161 T02720161 50000 
KTVC 251353Z 15003KT 10SM BKN230 24/17 A3002 RMK AO2 SLP163 T02390167   
KTVC 251253Z VRB04KT 10SM BKN240 22/16 A3002 RMK AO2 SLP162 T02170156   
KTVC 251153Z VRB03KT 10SM FEW140 20/16 A3001 RMK AO2 SLP161 T02000156 10222 20189 53005 
KTVC 251053Z 00000KT 10SM FEW140 19/16 A3001 RMK AO2 SLP157 T01940156   
KTVC 250953Z AUTO 00000KT 10SM CLR 21/16 A3000 RMK AO2 SLP154 T02060161 
KTVC 250853Z AUTO 16003KT 10SM CLR 21/17 A3000 RMK AO2 SLP155 T02110167 55002   
KTVC 250753Z AUTO 00000KT 10SM CLR 22/17 A3000 RMK AO2 SLP153 T02170167 
KTVC 250653Z AUTO 17003KT 10SM CLR 22/17 A3000 RMK AO2 SLP154 T02170172 
KTVC 250553Z AUTO 00000KT 10SM CLR 22/17 A3001 RMK AO2 SLP156 T02170172 10256 20211 58007   
KTVC 250453Z AUTO 00000KT 9SM CLR 21/18 A3002 RMK AO2 SLP160 T02110178 403500189
KTVC 250353Z AUTO 00000KT 10SM CLR 22/18 A3002 RMK AO2 SLP162 T02220178 
KTVC 250253Z AUTO 00000KT 10SM CLR 21/18 A3003 RMK AO2 SLP164 T02110183 51002   
KTVC 250235Z AUTO 00000KT 10SM FEW002 22/18 A3003 RMK AO2 T02170183
KTVC 250153Z 00000KT 10SM CLR 22/19 A3003 RMK AO2 SLP165 LAST T02220189 
KTVC 250053Z 00000KT 10SM CLR 24/19 A3003 RMK AO2 SLP165 T02390194  
KTVC 242353Z 00000KT 10SM CLR 26/19 A3002 RMK AO2 SLP163 T02560194 10350 20256 53004
KTVC 242253Z 05003KT 10SM FEW050 28/19 A3001 RMK AO2 SLP160 T02780194   
KTVC 242153Z 05006KT 10SM FEW050 29/19 A3000 RMK AO2 SLP155 T02940189